Time,TemperatureF,DewpointF,PressureIn,WindDirection,WindDirectionDegrees,WindSpeedMPH,WindSpeedGustMPH,Humidity,HourlyPrecipIn,Conditions,Clouds,dailyrainin,SoftwareType,DateUTC
2013-08-06 00:05:00,63.5,59.9,29.93,West,263,0.0,0.0,88,0.00,,,0.00,Wunderground v.1.15,2013-08-06 04:05:00,
2013-08-06 00:15:00,63.4,59.8,29.93,West,263,0.0,0.0,88,0.00,,,0.00,Wunderground v.1.15,2013-08-06 04:15:00,
2013-08-06 00:20:00,63.2,59.6,29.93,West,263,0.0,0.0,88,0.00,,,0.00,Wunderground v.1.15,2013-08-06 04:20:00,
2013-08-06 00:30:00,63.2,59.3,29.93,West,263,0.0,0.0,87,0.00,,,0.00,Wunderground v.1.15,2013-08-06 04:30:00,
2013-08-06 00:35:00,63.2,59.3,29.93,West,263,0.0,0.0,87,0.00,,,0.00,Wunderground v.1.15,2013-08-06 04:35:00,
2013-08-06 00:40:00,63.2,59.3,29.93,West,263,0.0,0.0,87,0.00,,,0.00,Wunderground v.1.15,2013-08-06 04:40:00,
2013-08-06 00:45:00,63.2,59.3,29.93,West,263,0.0,0.0,87,0.00,,,0.00,Wunderground v.1.15,2013-08-06 04:45:00,
2013-08-06 00:55:00,63.2,59.3,29.93,West,263,0.0,0.0,87,0.00,,,0.00,Wunderground v.1.15,2013-08-06 04:55:00,
2013-08-06 01:00:00,63.2,59.6,29.93,West,263,0.0,0.0,88,0.00,,,0.00,Wunderground v.1.15,2013-08-06 05:00:00,
2013-08-06 01:10:00,63.2,59.9,29.93,West,263,0.0,0.0,89,0.00,,,0.00,Wunderground v.1.15,2013-08-06 05:10:00,
2013-08-06 01:15:00,63.1,59.8,29.94,West,264,0.0,0.0,89,0.00,,,0.00,Wunderground v.1.15,2013-08-06 05:15:00,
2013-08-06 01:25:00,62.9,59.3,29.94,West,263,0.0,0.0,88,0.00,,,0.00,Wunderground v.1.15,2013-08-06 05:25:00,
2013-08-06 01:30:00,62.7,58.8,29.93,West,263,0.0,0.0,87,0.00,,,0.00,Wunderground v.1.15,2013-08-06 05:30:00,
2013-08-06 01:40:00,62.7,58.5,29.93,West,263,0.0,0.0,86,0.00,,,0.00,Wunderground v.1.15,2013-08-06 05:40:00,
2013-08-06 01:45:00,62.7,58.5,29.94,West,263,0.0,0.0,86,0.00,,,0.00,Wunderground v.1.15,2013-08-06 05:45:00,
2013-08-06 01:54:00,62.9,59.0,29.94,West,263,0.0,0.0,87,0.00,,,0.00,Wunderground v.1.15,2013-08-06 05:54:00,
2013-08-06 02:00:00,62.7,58.8,29.93,West,263,0.0,0.0,87,0.00,,,0.00,Wunderground v.1.15,2013-08-06 06:00:00,
2013-08-06 02:09:00,62.6,58.4,29.93,West,263,0.0,0.0,86,0.00,,,0.00,Wunderground v.1.15,2013-08-06 06:09:00,
2013-08-06 02:15:00,62.6,58.4,29.93,West,263,0.0,0.0,86,0.00,,,0.00,Wunderground v.1.15,2013-08-06 06:15:00,
2013-08-06 02:25:00,62.6,58.7,29.93,West,263,0.0,0.0,87,0.00,,,0.00,Wunderground v.1.15,2013-08-06 06:25:00,
2013-08-06 02:30:00,62.6,58.7,29.93,West,263,0.0,0.0,87,0.00,,,0.00,Wunderground v.1.15,2013-08-06 06:30:00,
2013-08-06 02:40:00,62.4,58.2,29.93,West,263,0.0,0.0,86,0.00,,,0.00,Wunderground v.1.15,2013-08-06 06:40:00,
2013-08-06 02:45:00,62.4,58.2,29.92,West,263,0.0,0.0,86,0.00,,,0.00,Wunderground v.1.15,2013-08-06 06:45:00,
2013-08-06 02:55:00,62.4,57.8,29.92,West,264,0.0,0.0,85,0.00,,,0.00,Wunderground v.1.15,2013-08-06 06:55:00,
2013-08-06 03:00:00,62.4,57.8,29.92,West,263,0.0,0.0,85,0.00,,,0.00,Wunderground v.1.15,2013-08-06 07:00:00,
2013-08-06 03:10:00,62.4,57.8,29.92,West,263,0.0,0.0,85,0.00,,,0.00,Wunderground v.1.15,2013-08-06 07:10:00,
2013-08-06 03:15:00,62.6,58.4,29.92,West,263,0.0,0.0,86,0.00,,,0.00,Wunderground v.1.15,2013-08-06 07:15:00,
2013-08-06 03:24:00,62.6,58.7,29.92,West,263,0.0,0.0,87,0.00,,,0.00,Wunderground v.1.15,2013-08-06 07:24:00,
2013-08-06 03:30:00,62.4,58.2,29.92,West,264,0.0,0.0,86,0.00,,,0.00,Wunderground v.1.15,2013-08-06 07:30:00,
2013-08-06 03:40:00,62.3,58.4,29.92,West,263,0.0,0.0,87,0.00,,,0.00,Wunderground v.1.15,2013-08-06 07:40:00,
2013-08-06 03:45:00,62.1,58.2,29.92,West,263,0.0,0.0,87,0.00,,,0.00,Wunderground v.1.15,2013-08-06 07:45:00,
2013-08-06 03:55:00,61.6,57.7,29.92,West,263,0.0,0.0,87,0.00,,,0.00,Wunderground v.1.15,2013-08-06 07:55:00,
2013-08-06 04:00:00,61.5,57.6,29.92,West,263,0.0,0.0,87,0.00,,,0.00,Wunderground v.1.15,2013-08-06 08:00:00,
2013-08-06 04:10:00,61.0,57.1,29.92,West,263,0.0,0.0,87,0.00,,,0.00,Wunderground v.1.15,2013-08-06 08:10:00,
2013-08-06 04:15:00,60.7,56.8,29.93,West,263,0.0,0.0,87,0.00,,,0.00,Wunderground v.1.15,2013-08-06 08:15:00,
2013-08-06 04:25:00,60.5,56.9,29.93,West,263,0.0,0.0,88,0.00,,,0.00,Wunderground v.1.15,2013-08-06 08:25:00,
2013-08-06 04:30:00,60.5,57.2,29.93,West,263,0.0,0.0,89,0.00,,,0.00,Wunderground v.1.15,2013-08-06 08:30:00,
2013-08-06 04:40:00,60.5,57.6,29.93,West,263,0.0,0.0,90,0.00,,,0.00,Wunderground v.1.15,2013-08-06 08:40:00,
2013-08-06 04:45:00,60.7,58.1,29.93,West,263,0.0,0.0,91,0.00,,,0.00,Wunderground v.1.15,2013-08-06 08:45:00,
2013-08-06 04:55:00,60.7,58.1,29.93,West,263,0.0,0.0,91,0.00,,,0.00,Wunderground v.1.15,2013-08-06 08:55:00,
2013-08-06 05:00:00,60.7,58.1,29.92,West,263,0.0,0.0,91,0.00,,,0.00,Wunderground v.1.15,2013-08-06 09:00:00,
2013-08-06 05:10:00,60.5,57.9,29.92,West,263,0.0,0.0,91,0.00,,,0.00,Wunderground v.1.15,2013-08-06 09:10:00,
2013-08-06 05:15:00,60.2,57.6,29.92,West,263,0.0,0.0,91,0.00,,,0.00,Wunderground v.1.15,2013-08-06 09:15:00,
2013-08-06 05:25:00,59.9,57.3,29.92,West,263,0.0,0.0,91,0.00,,,0.00,Wunderground v.1.15,2013-08-06 09:25:00,
2013-08-06 05:30:00,59.8,57.5,29.92,West,263,0.0,0.0,92,0.00,,,0.00,Wunderground v.1.15,2013-08-06 09:30:00,
2013-08-06 05:40:00,59.5,57.2,29.92,West,263,0.0,0.0,92,0.00,,,0.00,Wunderground v.1.15,2013-08-06 09:40:00,
2013-08-06 05:45:00,59.3,57.0,29.91,West,264,0.0,0.0,92,0.00,,,0.00,Wunderground v.1.15,2013-08-06 09:45:00,
2013-08-06 05:55:00,59.3,57.0,29.91,West,263,0.0,0.0,92,0.00,,,0.00,Wunderground v.1.15,2013-08-06 09:55:00,
2013-08-06 06:00:00,59.2,56.9,29.91,West,263,0.0,0.0,92,0.00,,,0.00,Wunderground v.1.15,2013-08-06 10:00:00,
2013-08-06 06:10:00,59.2,57.2,29.91,West,263,0.0,0.0,93,0.00,,,0.00,Wunderground v.1.15,2013-08-06 10:10:00,
2013-08-06 06:15:00,59.3,57.3,29.90,West,263,0.0,0.0,93,0.00,,,0.00,Wunderground v.1.15,2013-08-06 10:15:00,
2013-08-06 06:25:00,59.3,57.3,29.90,West,263,0.0,0.0,93,0.00,,,0.00,Wunderground v.1.15,2013-08-06 10:25:00,
2013-08-06 06:30:00,59.5,57.5,29.92,West,263,0.0,0.0,93,0.00,,,0.00,Wunderground v.1.15,2013-08-06 10:30:00,
2013-08-06 06:40:00,59.5,57.5,29.92,West,263,0.0,0.0,93,0.00,,,0.00,Wunderground v.1.15,2013-08-06 10:40:00,
2013-08-06 06:45:00,59.5,57.5,29.92,West,263,0.0,0.0,93,0.00,,,0.00,Wunderground v.1.15,2013-08-06 10:45:00,
2013-08-06 06:55:00,59.5,57.5,29.92,West,263,0.0,0.0,93,0.00,,,0.00,Wunderground v.1.15,2013-08-06 10:55:00,
2013-08-06 07:00:00,59.3,57.3,29.92,West,264,0.0,0.0,93,0.00,,,0.00,Wunderground v.1.15,2013-08-06 11:00:00,
2013-08-06 07:10:00,59.3,57.3,29.92,West,264,0.0,0.0,93,0.00,,,0.00,Wunderground v.1.15,2013-08-06 11:10:00,
2013-08-06 07:15:00,59.3,57.3,29.92,West,263,0.0,0.0,93,0.00,,,0.00,Wunderground v.1.15,2013-08-06 11:15:00,
2013-08-06 07:25:00,59.6,57.6,29.92,West,263,0.0,0.0,93,0.00,,,0.00,Wunderground v.1.15,2013-08-06 11:25:00,
2013-08-06 07:30:00,59.6,57.6,29.92,West,263,0.0,0.0,93,0.00,,,0.00,Wunderground v.1.15,2013-08-06 11:30:00,
2013-08-06 07:39:00,60.1,58.4,29.92,West,263,0.0,0.0,94,0.00,,,0.00,Wunderground v.1.15,2013-08-06 11:39:00,
2013-08-06 07:45:00,60.5,58.8,29.93,West,263,0.0,0.0,94,0.00,,,0.00,Wunderground v.1.15,2013-08-06 11:45:00,
2013-08-06 07:55:00,61.0,59.0,29.93,West,263,0.0,0.0,93,0.00,,,0.00,Wunderground v.1.15,2013-08-06 11:55:00,
2013-08-06 08:00:00,61.3,59.3,29.93,West,263,0.0,0.0,93,0.00,,,0.00,Wunderground v.1.15,2013-08-06 12:00:00,
2013-08-06 08:10:00,61.8,59.1,29.93,West,263,0.0,0.0,91,0.00,,,0.00,Wunderground v.1.15,2013-08-06 12:10:00,
2013-08-06 08:15:00,62.1,58.8,29.93,West,262,0.0,0.0,89,0.00,,,0.00,Wunderground v.1.15,2013-08-06 12:15:00,
2013-08-06 08:25:00,63.1,58.8,29.93,West,262,0.0,0.0,86,0.00,,,0.00,Wunderground v.1.15,2013-08-06 12:25:00,
2013-08-06 08:30:00,63.5,59.2,29.93,West,262,0.0,0.0,86,0.00,,,0.00,Wunderground v.1.15,2013-08-06 12:30:00,
2013-08-06 08:40:00,64.3,58.0,29.93,SW,232,0.0,0.0,80,0.00,,,0.00,Wunderground v.1.15,2013-08-06 12:40:00,
2013-08-06 08:45:00,64.7,58.0,29.94,SW,232,0.0,2.0,79,0.00,,,0.00,Wunderground v.1.15,2013-08-06 12:45:00,
2013-08-06 08:55:00,65.2,57.4,29.94,SW,232,0.0,0.0,76,0.00,,,0.00,Wunderground v.1.15,2013-08-06 12:55:00,
2013-08-06 09:00:00,65.3,57.5,29.94,SW,232,0.0,0.0,76,0.00,,,0.00,Wunderground v.1.15,2013-08-06 13:00:00,
2013-08-06 09:10:00,66.0,58.6,29.94,SW,232,0.0,0.0,77,0.00,,,0.00,Wunderground v.1.15,2013-08-06 13:10:00,
2013-08-06 09:15:00,66.3,58.9,29.93,SW,232,0.0,1.0,77,0.00,,,0.00,Wunderground v.1.15,2013-08-06 13:15:00,
2013-08-06 09:24:00,66.4,58.6,29.93,South,176,0.0,0.0,76,0.00,,,0.00,Wunderground v.1.15,2013-08-06 13:24:00,
2013-08-06 09:30:00,66.4,57.1,29.94,South,176,0.0,0.0,72,0.00,,,0.00,Wunderground v.1.15,2013-08-06 13:30:00,
2013-08-06 09:40:00,66.9,58.0,29.94,WNW,286,0.0,0.0,73,0.00,,,0.00,Wunderground v.1.15,2013-08-06 13:40:00,
2013-08-06 09:45:00,66.8,57.9,29.94,WNW,286,0.0,0.0,73,0.00,,,0.00,Wunderground v.1.15,2013-08-06 13:45:00,
2013-08-06 09:55:00,67.3,59.1,29.94,WNW,285,0.0,0.0,75,0.00,,,0.00,Wunderground v.1.15,2013-08-06 13:55:00,
2013-08-06 10:00:00,67.6,58.2,29.94,South,185,0.0,2.0,72,0.00,,,0.00,Wunderground v.1.15,2013-08-06 14:00:00,
2013-08-06 10:10:00,68.4,59.0,29.94,SSW,197,1.0,1.0,72,0.00,,,0.00,Wunderground v.1.15,2013-08-06 14:10:00,
2013-08-06 10:15:00,68.9,59.9,29.93,SSW,199,1.0,3.0,73,0.00,,,0.00,Wunderground v.1.15,2013-08-06 14:15:00,
2013-08-06 10:25:00,69.4,59.6,29.93,SW,233,1.0,3.0,71,0.00,,,0.00,Wunderground v.1.15,2013-08-06 14:25:00,
2013-08-06 10:30:00,69.9,58.9,29.93,SE,141,1.0,1.0,68,0.00,,,0.00,Wunderground v.1.15,2013-08-06 14:30:00,
2013-08-06 10:40:00,70.3,59.2,29.93,SSE,162,1.0,1.0,68,0.00,,,0.00,Wunderground v.1.15,2013-08-06 14:40:00,
2013-08-06 10:45:00,70.6,61.5,29.92,SE,126,0.0,1.0,73,0.00,,,0.00,Wunderground v.1.15,2013-08-06 14:45:00,
2013-08-06 10:55:00,71.1,59.6,29.92,SSW,209,1.0,2.0,67,0.00,,,0.00,Wunderground v.1.15,2013-08-06 14:55:00,
2013-08-06 11:00:00,71.5,60.4,29.91,East,88,1.0,1.0,68,0.00,,,0.00,Wunderground v.1.15,2013-08-06 15:00:00,
2013-08-06 11:10:00,72.0,60.0,29.91,SSE,160,1.0,1.0,66,0.00,,,0.00,Wunderground v.1.15,2013-08-06 15:10:00,
2013-08-06 11:15:00,72.3,59.4,29.92,SW,216,2.0,4.0,64,0.00,,,0.00,Wunderground v.1.15,2013-08-06 15:15:00,
2013-08-06 11:25:00,72.8,60.8,29.92,SW,227,2.0,2.0,66,0.00,,,0.00,Wunderground v.1.15,2013-08-06 15:25:00,
2013-08-06 11:30:00,73.5,61.4,29.92,WSW,243,1.0,3.0,66,0.00,,,0.00,Wunderground v.1.15,2013-08-06 15:30:00,
2013-08-06 11:40:00,73.7,59.9,29.92,SSW,193,2.0,3.0,62,0.00,,,0.00,Wunderground v.1.15,2013-08-06 15:40:00,
2013-08-06 11:45:00,74.0,59.2,29.92,NNE,17,2.0,3.0,60,0.00,,,0.00,Wunderground v.1.15,2013-08-06 15:45:00,
2013-08-06 11:55:00,74.7,58.9,29.92,SW,222,1.0,1.0,58,0.00,,,0.00,Wunderground v.1.15,2013-08-06 15:55:00,
2013-08-06 12:00:00,74.9,60.5,29.91,SW,221,1.0,1.0,61,0.00,,,0.00,Wunderground v.1.15,2013-08-06 16:00:00,
2013-08-06 12:10:00,75.1,61.6,29.91,South,181,1.0,2.0,63,0.00,,,0.00,Wunderground v.1.15,2013-08-06 16:10:00,
2013-08-06 12:15:00,75.3,61.8,29.91,West,269,2.0,3.0,63,0.00,,,0.00,Wunderground v.1.15,2013-08-06 16:15:00,
2013-08-06 12:25:00,75.1,58.8,29.91,SSW,202,3.0,3.0,57,0.00,,,0.00,Wunderground v.1.15,2013-08-06 16:25:00,
2013-08-06 12:30:00,75.1,59.8,29.91,SSE,153,1.0,1.0,59,0.00,,,0.00,Wunderground v.1.15,2013-08-06 16:30:00,
2013-08-06 12:40:00,75.8,60.9,29.91,SSW,209,1.0,1.0,60,0.00,,,0.00,Wunderground v.1.15,2013-08-06 16:40:00,
2013-08-06 12:45:00,76.3,61.9,29.91,SSW,194,1.0,1.0,61,0.00,,,0.00,Wunderground v.1.15,2013-08-06 16:45:00,
2013-08-06 12:54:00,75.4,59.1,29.91,SSW,205,2.0,2.0,57,0.00,,,0.00,Wunderground v.1.15,2013-08-06 16:54:00,
2013-08-06 13:00:00,75.6,60.3,29.91,SW,226,3.0,3.0,59,0.00,,,0.00,Wunderground v.1.15,2013-08-06 17:00:00,
2013-08-06 13:10:00,75.6,57.3,29.91,SW,219,2.0,7.0,53,0.00,,,0.00,Wunderground v.1.15,2013-08-06 17:10:00,
2013-08-06 13:15:00,76.0,61.6,29.91,South,188,2.0,7.0,61,0.00,,,0.00,Wunderground v.1.15,2013-08-06 17:15:00,
2013-08-06 13:25:00,76.7,58.3,29.91,SSW,209,2.0,4.0,53,0.00,,,0.00,Wunderground v.1.15,2013-08-06 17:25:00,
2013-08-06 13:30:00,76.1,56.7,29.91,South,174,3.0,3.0,51,0.00,,,0.00,Wunderground v.1.15,2013-08-06 17:30:00,
2013-08-06 13:39:00,76.7,63.2,29.91,SW,229,2.0,2.0,63,0.00,,,0.00,Wunderground v.1.15,2013-08-06 17:39:00,
2013-08-06 13:45:00,76.8,57.8,29.91,WSW,254,1.0,2.0,52,0.00,,,0.00,Wunderground v.1.15,2013-08-06 17:45:00,
2013-08-06 13:55:00,76.7,59.3,29.91,SW,215,3.0,3.0,55,0.00,,,0.00,Wunderground v.1.15,2013-08-06 17:55:00,
2013-08-06 14:00:00,76.8,57.8,29.91,SSE,158,2.0,2.0,52,0.00,,,0.00,Wunderground v.1.15,2013-08-06 18:00:00,
2013-08-06 14:05:00,77.2,59.3,29.91,South,191,1.0,2.0,54,0.00,,,0.00,Wunderground v.1.15,2013-08-06 18:05:00,
2013-08-06 14:15:00,77.2,59.3,29.92,SW,223,3.0,3.0,54,0.00,,,0.00,Wunderground v.1.15,2013-08-06 18:15:00,
2013-08-06 14:25:00,77.2,57.7,29.92,SSW,198,2.0,3.0,51,0.00,,,0.00,Wunderground v.1.15,2013-08-06 18:25:00,
2013-08-06 14:30:00,77.7,60.2,29.92,SSE,155,1.0,2.0,55,0.00,,,0.00,Wunderground v.1.15,2013-08-06 18:30:00,
2013-08-06 14:40:00,78.5,60.5,29.92,South,178,1.0,1.0,54,0.00,,,0.00,Wunderground v.1.15,2013-08-06 18:40:00,
2013-08-06 14:45:00,78.6,61.1,29.91,South,188,0.0,1.0,55,0.00,,,0.00,Wunderground v.1.15,2013-08-06 18:45:00,
2013-08-06 14:55:00,78.6,62.6,29.91,SSW,194,1.0,2.0,58,0.00,,,0.00,Wunderground v.1.15,2013-08-06 18:55:00,
2013-08-06 15:00:00,78.6,62.1,29.90,SSW,207,1.0,1.0,57,0.00,,,0.00,Wunderground v.1.15,2013-08-06 19:00:00,
2013-08-06 15:10:00,78.3,62.3,29.90,SW,219,1.0,1.0,58,0.00,,,0.00,Wunderground v.1.15,2013-08-06 19:10:00,
2013-08-06 15:15:00,78.6,57.8,29.89,SW,222,1.0,1.0,49,0.00,,,0.00,Wunderground v.1.15,2013-08-06 19:15:00,
2013-08-06 15:24:00,78.6,60.0,29.89,SSW,204,1.0,7.0,53,0.00,,,0.00,Wunderground v.1.15,2013-08-06 19:24:00,
2013-08-06 15:30:00,77.7,58.1,29.89,SW,218,2.0,2.0,51,0.00,,,0.00,Wunderground v.1.15,2013-08-06 19:30:00,
2013-08-06 15:39:00,77.0,59.1,29.89,SSW,205,2.0,2.0,54,0.00,,,0.00,Wunderground v.1.15,2013-08-06 19:39:00,
2013-08-06 15:45:00,76.8,58.9,29.89,SSW,211,3.0,3.0,54,0.00,,,0.00,Wunderground v.1.15,2013-08-06 19:45:00,
2013-08-06 15:55:00,77.4,60.0,29.89,SSW,211,1.0,2.0,55,0.00,,,0.00,Wunderground v.1.15,2013-08-06 19:55:00,
2013-08-06 16:00:00,77.2,63.6,29.90,SSW,211,1.0,1.0,63,0.00,,,0.00,Wunderground v.1.15,2013-08-06 20:00:00,
2013-08-06 16:10:00,76.7,59.3,29.90,South,177,1.0,2.0,55,0.00,,,0.00,Wunderground v.1.15,2013-08-06 20:10:00,
2013-08-06 16:15:00,76.5,61.1,29.90,SSW,196,1.0,2.0,59,0.00,,,0.00,Wunderground v.1.15,2013-08-06 20:15:00,
2013-08-06 16:24:00,76.3,61.9,29.90,SSW,196,0.0,2.0,61,0.00,,,0.00,Wunderground v.1.15,2013-08-06 20:24:00,
2013-08-06 16:30:00,76.3,63.2,29.90,SSW,196,0.0,0.0,64,0.00,,,0.00,Wunderground v.1.15,2013-08-06 20:30:00,
2013-08-06 16:40:00,76.1,62.1,29.90,SW,219,0.0,0.0,62,0.00,,,0.00,Wunderground v.1.15,2013-08-06 20:40:00,
2013-08-06 16:45:00,76.1,63.5,29.90,SW,219,0.0,0.0,65,0.00,,,0.00,Wunderground v.1.15,2013-08-06 20:45:00,
2013-08-06 16:55:00,76.1,63.0,29.90,SW,219,0.0,0.0,64,0.00,,,0.00,Wunderground v.1.15,2013-08-06 20:55:00,
2013-08-06 17:00:00,76.7,62.2,29.89,SW,219,0.0,0.0,61,0.00,,,0.00,Wunderground v.1.15,2013-08-06 21:00:00,
2013-08-06 17:10:00,77.9,63.8,29.89,SW,225,1.0,1.0,62,0.00,,,0.00,Wunderground v.1.15,2013-08-06 21:10:00,
2013-08-06 17:15:00,78.5,62.5,29.88,SSW,198,1.0,2.0,58,0.00,,,0.00,Wunderground v.1.15,2013-08-06 21:15:00,
2013-08-06 17:25:00,78.1,62.1,29.88,SSW,200,2.0,3.0,58,0.00,,,0.00,Wunderground v.1.15,2013-08-06 21:25:00,
2013-08-06 17:30:00,77.7,62.2,29.88,SSE,157,2.0,2.0,59,0.00,,,0.00,Wunderground v.1.15,2013-08-06 21:30:00,
2013-08-06 17:40:00,77.7,60.2,29.88,SW,216,2.0,3.0,55,0.00,,,0.00,Wunderground v.1.15,2013-08-06 21:40:00,
2013-08-06 17:45:00,77.6,60.2,29.88,SW,221,2.0,3.0,55,0.00,,,0.00,Wunderground v.1.15,2013-08-06 21:45:00,
2013-08-06 17:55:00,77.6,62.1,29.88,SSW,199,2.0,4.0,59,0.00,,,0.00,Wunderground v.1.15,2013-08-06 21:55:00,
2013-08-06 18:00:00,77.4,58.9,29.88,SW,220,2.0,2.0,53,0.00,,,0.00,Wunderground v.1.15,2013-08-06 22:00:00,
2013-08-06 18:10:00,77.4,62.9,29.88,SSW,196,1.0,1.0,61,0.00,,,0.00,Wunderground v.1.15,2013-08-06 22:10:00,
2013-08-06 18:15:00,77.0,60.6,29.88,SSW,212,1.0,4.0,57,0.00,,,0.00,Wunderground v.1.15,2013-08-06 22:15:00,
2013-08-06 18:24:00,76.5,62.0,29.88,SW,215,1.0,1.0,61,0.00,,,0.00,Wunderground v.1.15,2013-08-06 22:24:00,
2013-08-06 18:30:00,76.3,61.9,29.88,SW,217,0.0,0.0,61,0.00,,,0.00,Wunderground v.1.15,2013-08-06 22:30:00,
2013-08-06 18:39:00,76.0,62.5,29.88,SSW,200,0.0,0.0,63,0.00,,,0.00,Wunderground v.1.15,2013-08-06 22:39:00,
2013-08-06 18:45:00,75.8,62.8,29.88,SSW,208,1.0,1.0,64,0.00,,,0.00,Wunderground v.1.15,2013-08-06 22:45:00,
2013-08-06 18:55:00,75.6,62.6,29.88,SW,219,0.0,1.0,64,0.00,,,0.00,Wunderground v.1.15,2013-08-06 22:55:00,
2013-08-06 19:00:00,75.4,63.2,29.88,SW,219,0.0,0.0,66,0.00,,,0.00,Wunderground v.1.15,2013-08-06 23:00:00,
2013-08-06 19:10:00,75.1,63.0,29.88,SW,219,0.0,0.0,66,0.00,,,0.00,Wunderground v.1.15,2013-08-06 23:10:00,
2013-08-06 19:15:00,74.9,61.9,29.88,SW,219,0.0,0.0,64,0.00,,,0.00,Wunderground v.1.15,2013-08-06 23:15:00,
2013-08-06 19:25:00,74.6,63.3,29.88,SSW,200,0.0,0.0,68,0.00,,,0.00,Wunderground v.1.15,2013-08-06 23:25:00,
2013-08-06 19:30:00,74.4,62.7,29.88,SSW,200,0.0,0.0,67,0.00,,,0.00,Wunderground v.1.15,2013-08-06 23:30:00,
2013-08-06 19:39:00,74.0,63.2,29.88,SSW,200,0.0,0.0,69,0.00,,,0.00,Wunderground v.1.15,2013-08-06 23:39:00,
2013-08-06 19:45:00,73.9,63.5,29.88,SSW,200,0.0,0.0,70,0.00,,,0.00,Wunderground v.1.15,2013-08-06 23:45:00,
2013-08-06 19:55:00,73.3,63.7,29.88,SSW,200,0.0,0.0,72,0.00,,,0.00,Wunderground v.1.15,2013-08-06 23:55:00,
2013-08-06 20:00:00,73.0,63.8,29.88,SSW,200,0.0,0.0,73,0.00,,,0.00,Wunderground v.1.15,2013-08-07 00:00:00,
2013-08-06 20:10:00,72.8,64.0,29.88,SSW,200,0.0,0.0,74,0.00,,,0.00,Wunderground v.1.15,2013-08-07 00:10:00,
2013-08-06 20:15:00,72.5,64.1,29.88,SSW,200,0.0,0.0,75,0.00,,,0.00,Wunderground v.1.15,2013-08-07 00:15:00,
2013-08-06 20:25:00,72.0,64.0,29.88,SSW,200,0.0,0.0,76,0.00,,,0.00,Wunderground v.1.15,2013-08-07 00:25:00,
2013-08-06 20:30:00,71.8,64.6,29.88,SSW,200,0.0,0.0,78,0.00,,,0.00,Wunderground v.1.15,2013-08-07 00:30:00,
2013-08-06 20:40:00,71.3,63.7,29.88,SSW,200,0.0,0.0,77,0.00,,,0.00,Wunderground v.1.15,2013-08-07 00:40:00,
2013-08-06 20:45:00,70.9,63.0,29.87,SSW,200,0.0,0.0,76,0.00,,,0.00,Wunderground v.1.15,2013-08-07 00:45:00,
2013-08-06 20:55:00,70.6,64.1,29.87,SSW,200,0.0,0.0,80,0.00,,,0.00,Wunderground v.1.15,2013-08-07 00:55:00,
2013-08-06 21:00:00,70.4,63.9,29.86,SSW,200,0.0,0.0,80,0.00,,,0.00,Wunderground v.1.15,2013-08-07 01:00:00,
2013-08-06 21:10:00,69.6,63.2,29.86,SSW,200,0.0,0.0,80,0.00,,,0.00,Wunderground v.1.15,2013-08-07 01:10:00,
2013-08-06 21:15:00,69.3,62.5,29.86,SSW,200,0.0,0.0,79,0.00,,,0.00,Wunderground v.1.15,2013-08-07 01:15:00,
2013-08-06 21:25:00,68.8,62.4,29.86,SSW,200,0.0,0.0,80,0.00,,,0.00,Wunderground v.1.15,2013-08-07 01:25:00,
2013-08-06 21:30:00,68.4,62.0,29.87,SSW,200,0.0,0.0,80,0.00,,,0.00,Wunderground v.1.15,2013-08-07 01:30:00,
2013-08-06 21:40:00,68.1,62.0,29.87,SSW,200,0.0,0.0,81,0.00,,,0.00,Wunderground v.1.15,2013-08-07 01:40:00,
2013-08-06 21:45:00,67.8,61.8,29.87,SSW,200,0.0,0.0,81,0.00,,,0.00,Wunderground v.1.15,2013-08-07 01:45:00,
2013-08-06 21:55:00,67.4,61.7,29.87,SSW,200,0.0,0.0,82,0.00,,,0.00,Wunderground v.1.15,2013-08-07 01:55:00,
2013-08-06 22:00:00,67.3,62.3,29.88,SSW,200,0.0,0.0,84,0.00,,,0.00,Wunderground v.1.15,2013-08-07 02:00:00,
2013-08-06 22:10:00,66.8,62.1,29.88,SSW,200,0.0,0.0,85,0.00,,,0.00,Wunderground v.1.15,2013-08-07 02:10:00,
2013-08-06 22:15:00,66.6,62.3,29.88,SSW,200,0.0,0.0,86,0.00,,,0.00,Wunderground v.1.15,2013-08-07 02:15:00,
2013-08-06 22:25:00,66.3,62.0,29.88,SSW,200,0.0,0.0,86,0.00,,,0.00,Wunderground v.1.15,2013-08-07 02:25:00,
2013-08-06 22:30:00,66.3,62.3,29.88,SSW,200,0.0,0.0,87,0.00,,,0.00,Wunderground v.1.15,2013-08-07 02:30:00,
2013-08-06 22:40:00,66.0,62.0,29.88,SSW,200,0.0,0.0,87,0.00,,,0.00,Wunderground v.1.15,2013-08-07 02:40:00,
2013-08-06 22:45:00,65.8,62.1,29.88,SSW,200,0.0,0.0,88,0.00,,,0.00,Wunderground v.1.15,2013-08-07 02:45:00,
2013-08-06 22:55:00,65.5,62.2,29.88,SSW,200,0.0,0.0,89,0.00,,,0.00,Wunderground v.1.15,2013-08-07 02:55:00,
2013-08-06 23:00:00,65.3,61.7,29.87,SSW,200,0.0,0.0,88,0.00,,,0.00,Wunderground v.1.15,2013-08-07 03:00:00,
2013-08-06 23:10:00,65.0,61.7,29.87,SSW,200,0.0,0.0,89,0.00,,,0.00,Wunderground v.1.15,2013-08-07 03:10:00,
2013-08-06 23:15:00,64.8,61.5,29.87,SSW,200,0.0,0.0,89,0.00,,,0.00,Wunderground v.1.15,2013-08-07 03:15:00,
2013-08-06 23:25:00,64.7,61.4,29.87,SSW,200,0.0,0.0,89,0.00,,,0.00,Wunderground v.1.15,2013-08-07 03:25:00,
2013-08-06 23:30:00,64.7,61.7,29.87,SSW,200,0.0,0.0,90,0.00,,,0.00,Wunderground v.1.15,2013-08-07 03:30:00,
2013-08-06 23:39:00,64.5,61.5,29.87,SSW,200,0.0,0.0,90,0.00,,,0.00,Wunderground v.1.15,2013-08-07 03:39:00,
2013-08-06 23:45:00,64.5,61.5,29.87,SSW,200,0.0,0.0,90,0.00,,,0.00,Wunderground v.1.15,2013-08-07 03:45:00,
2013-08-06 23:55:00,64.3,61.6,29.87,SSW,200,0.0,0.0,91,0.00,,,0.00,Wunderground v.1.15,2013-08-07 03:55:00,